Time,TemperatureF,DewpointF,PressureIn,WindDirection,WindDirectionDegrees,WindSpeedMPH,WindSpeedGustMPH,Humidity,HourlyPrecipIn,Conditions,Clouds,dailyrainin,SoftwareType,DateUTC
2013-02-04 00:01:00,23.9,15.6,29.38,North,0,0.0,0.0,70,0.00,,,0.00,WUHU216HW,2013-02-04 05:01:00,
2013-02-04 00:02:00,23.9,15.6,29.38,North,0,0.0,0.0,70,0.00,,,0.00,WUHU216HW,2013-02-04 05:02:00,
2013-02-04 00:04:00,23.8,15.4,29.38,North,0,0.0,0.0,70,0.00,,,0.00,WUHU216HW,2013-02-04 05:04:00,
2013-02-04 00:09:00,23.8,15.4,29.38,North,0,0.0,0.0,70,0.00,,,0.00,WUHU216HW,2013-02-04 05:09:00,
2013-02-04 00:14:00,23.8,15.4,29.38,North,0,0.0,0.0,70,0.00,,,0.00,WUHU216HW,2013-02-04 05:14:00,
2013-02-04 00:19:00,23.6,15.6,29.38,North,0,0.0,0.0,71,0.00,,,0.00,WUHU216HW,2013-02-04 05:19:00,
2013-02-04 00:24:00,23.6,15.6,29.38,North,0,0.0,0.0,71,0.00,,,0.00,WUHU216HW,2013-02-04 05:24:00,
2013-02-04 00:30:00,23.4,15.4,29.38,North,0,0.0,0.0,71,0.00,,,0.00,WUHU216HW,2013-02-04 05:30:00,
2013-02-04 00:35:00,23.4,15.4,29.38,North,0,0.0,0.0,71,0.00,,,0.00,WUHU216HW,2013-02-04 05:35:00,
2013-02-04 00:40:00,23.4,15.7,29.38,North,0,0.0,0.0,72,0.00,,,0.00,WUHU216HW,2013-02-04 05:40:00,
2013-02-04 00:45:00,23.2,15.6,29.38,North,0,0.0,0.0,72,0.00,,,0.00,WUHU216HW,2013-02-04 05:45:00,
2013-02-04 00:50:00,23.2,15.6,29.38,North,0,0.0,0.0,72,0.00,,,0.00,WUHU216HW,2013-02-04 05:50:00,
2013-02-04 00:55:00,23.2,15.6,29.38,North,0,0.0,0.0,72,0.00,,,0.00,WUHU216HW,2013-02-04 05:55:00,
2013-02-04 01:00:00,23.0,15.7,29.38,North,0,0.0,0.0,73,0.00,,,0.00,WUHU216HW,2013-02-04 06:00:00,
2013-02-04 01:05:00,23.0,15.7,29.38,North,0,0.0,0.0,73,0.00,,,0.00,WUHU216HW,2013-02-04 06:05:00,
2013-02-04 01:10:00,23.0,15.7,29.38,North,0,0.0,0.0,73,0.00,,,0.00,WUHU216HW,2013-02-04 06:10:00,
2013-02-04 01:16:00,22.9,15.5,29.38,North,0,0.0,0.0,73,0.00,,,0.00,WUHU216HW,2013-02-04 06:16:00,
2013-02-04 01:21:00,22.7,15.3,29.38,North,0,0.0,0.0,73,0.00,,,0.00,WUHU216HW,2013-02-04 06:21:00,
2013-02-04 01:26:00,22.5,15.5,29.38,North,0,0.0,0.0,74,0.00,,,0.00,WUHU216HW,2013-02-04 06:26:00,
2013-02-04 01:31:00,22.3,15.3,29.38,North,0,0.0,0.0,74,0.00,,,0.00,WUHU216HW,2013-02-04 06:31:00,
2013-02-04 01:36:00,22.0,15.0,29.38,North,0,0.0,0.0,74,0.00,,,0.00,WUHU216HW,2013-02-04 06:36:00,
2013-02-04 01:41:00,22.0,15.0,29.38,North,0,0.0,0.0,74,0.00,,,0.00,WUHU216HW,2013-02-04 06:41:00,
2013-02-04 01:46:00,21.6,14.9,29.38,North,0,0.0,0.0,75,0.00,,,0.00,WUHU216HW,2013-02-04 06:46:00,
2013-02-04 01:51:00,21.6,14.9,29.38,North,0,0.0,0.0,75,0.00,,,0.00,WUHU216HW,2013-02-04 06:51:00,
2013-02-04 01:56:00,21.4,14.7,29.38,North,0,0.0,0.0,75,0.00,,,0.00,WUHU216HW,2013-02-04 06:56:00,
2013-02-04 02:02:00,21.4,14.7,29.38,North,0,0.0,0.0,75,0.00,,,0.00,WUHU216HW,2013-02-04 07:02:00,
2013-02-04 02:07:00,21.4,14.7,29.38,North,0,0.0,0.0,75,0.00,,,0.00,WUHU216HW,2013-02-04 07:07:00,
2013-02-04 02:12:00,21.2,14.5,29.38,North,0,0.0,0.0,75,0.00,,,0.00,WUHU216HW,2013-02-04 07:12:00,
2013-02-04 02:17:00,21.2,14.8,29.38,North,0,0.0,0.0,76,0.00,,,0.00,WUHU216HW,2013-02-04 07:17:00,
2013-02-04 02:22:00,21.2,14.8,29.38,North,0,0.0,0.0,76,0.00,,,0.00,WUHU216HW,2013-02-04 07:22:00,
2013-02-04 02:27:00,21.2,14.5,29.38,North,0,0.0,0.0,75,0.00,,,0.00,WUHU216HW,2013-02-04 07:27:00,
2013-02-04 02:32:00,21.2,14.5,29.38,North,0,0.0,0.0,75,0.00,,,0.00,WUHU216HW,2013-02-04 07:32:00,
2013-02-04 02:37:00,21.1,14.3,29.38,North,0,0.0,0.0,75,0.00,,,0.00,WUHU216HW,2013-02-04 07:37:00,
2013-02-04 02:43:00,21.1,14.3,29.38,North,0,0.0,0.0,75,0.00,,,0.00,WUHU216HW,2013-02-04 07:43:00,
2013-02-04 02:48:00,20.9,14.1,29.38,North,0,0.0,0.0,75,0.00,,,0.00,WUHU216HW,2013-02-04 07:48:00,
2013-02-04 02:53:00,20.9,14.1,29.37,North,0,0.0,0.0,75,0.00,,,0.00,WUHU216HW,2013-02-04 07:53:00,
2013-02-04 02:58:00,20.7,14.0,29.37,North,0,0.0,0.0,75,0.00,,,0.00,WUHU216HW,2013-02-04 07:58:00,
2013-02-04 03:03:00,20.5,13.8,29.37,North,0,0.0,0.0,75,0.00,,,0.00,WUHU216HW,2013-02-04 08:03:00,
2013-02-04 03:08:00,20.5,13.8,29.37,North,0,0.0,0.0,75,0.00,,,0.00,WUHU216HW,2013-02-04 08:08:00,
2013-02-04 03:13:00,20.5,13.8,29.37,North,0,0.0,0.0,75,0.00,,,0.00,WUHU216HW,2013-02-04 08:13:00,
2013-02-04 03:18:00,20.3,13.6,29.37,North,0,0.0,0.0,75,0.00,,,0.00,WUHU216HW,2013-02-04 08:18:00,
2013-02-04 03:23:00,20.2,13.4,29.37,North,0,0.0,0.0,75,0.00,,,0.00,WUHU216HW,2013-02-04 08:23:00,
2013-02-04 03:28:00,20.0,13.2,29.37,North,0,0.0,0.0,75,0.00,,,0.00,WUHU216HW,2013-02-04 08:28:00,
2013-02-04 03:34:00,19.8,13.1,29.37,North,0,0.0,0.0,75,0.00,,,0.00,WUHU216HW,2013-02-04 08:34:00,
2013-02-04 03:39:00,19.8,13.1,29.37,North,0,0.0,0.0,75,0.00,,,0.00,WUHU216HW,2013-02-04 08:39:00,
2013-02-04 03:44:00,19.8,13.1,29.37,North,0,0.0,0.0,75,0.00,,,0.00,WUHU216HW,2013-02-04 08:44:00,
2013-02-04 03:49:00,19.8,13.3,29.36,North,0,0.0,0.0,76,0.00,,,0.00,WUHU216HW,2013-02-04 08:49:00,
2013-02-04 03:54:00,19.8,13.3,29.37,North,0,0.0,0.0,76,0.00,,,0.00,WUHU216HW,2013-02-04 08:54:00,
2013-02-04 03:59:00,19.8,13.3,29.37,North,0,0.0,0.0,76,0.00,,,0.00,WUHU216HW,2013-02-04 08:59:00,
2013-02-04 04:04:00,19.8,13.3,29.36,North,0,0.0,0.0,76,0.00,,,0.00,WUHU216HW,2013-02-04 09:04:00,
2013-02-04 04:09:00,19.6,13.1,29.36,North,0,0.0,0.0,76,0.00,,,0.00,WUHU216HW,2013-02-04 09:09:00,
2013-02-04 04:14:00,19.4,12.7,29.37,North,0,0.0,0.0,75,0.00,,,0.00,WUHU216HW,2013-02-04 09:14:00,
2013-02-04 04:19:00,19.4,13.0,29.37,North,0,0.0,0.0,76,0.00,,,0.00,WUHU216HW,2013-02-04 09:19:00,
2013-02-04 04:25:00,19.3,12.8,29.37,North,0,0.0,0.0,76,0.00,,,0.00,WUHU216HW,2013-02-04 09:25:00,
2013-02-04 04:30:00,19.3,12.8,29.37,North,0,0.0,0.0,76,0.00,,,0.00,WUHU216HW,2013-02-04 09:30:00,
2013-02-04 04:35:00,19.3,12.8,29.37,North,0,0.0,0.0,76,0.00,,,0.00,WUHU216HW,2013-02-04 09:35:00,
2013-02-04 04:40:00,19.3,12.8,29.37,North,0,0.0,0.0,76,0.00,,,0.00,WUHU216HW,2013-02-04 09:40:00,
2013-02-04 04:45:00,19.3,13.2,29.37,North,0,0.0,0.0,77,0.00,,,0.00,WUHU216HW,2013-02-04 09:45:00,
2013-02-04 04:50:00,19.4,13.3,29.37,North,0,0.0,0.0,77,0.00,,,0.00,WUHU216HW,2013-02-04 09:50:00,
2013-02-04 04:55:00,19.6,13.5,29.37,North,0,0.0,0.0,77,0.00,,,0.00,WUHU216HW,2013-02-04 09:55:00,
2013-02-04 05:00:00,19.8,13.7,29.37,North,0,0.0,0.0,77,0.00,,,0.00,WUHU216HW,2013-02-04 10:00:00,
2013-02-04 05:05:00,20.2,14.1,29.38,North,0,0.0,0.0,77,0.00,,,0.00,WUHU216HW,2013-02-04 10:05:00,
2013-02-04 05:11:00,20.3,14.2,29.38,North,0,0.0,0.0,77,0.00,,,0.00,WUHU216HW,2013-02-04 10:11:00,
2013-02-04 05:16:00,20.5,14.0,29.38,North,0,0.0,0.0,76,0.00,,,0.00,WUHU216HW,2013-02-04 10:16:00,
2013-02-04 05:21:00,20.5,14.0,29.38,North,0,0.0,0.0,76,0.00,,,0.00,WUHU216HW,2013-02-04 10:21:00,
2013-02-04 05:26:00,20.7,14.2,29.38,North,0,0.0,0.0,76,0.00,,,0.00,WUHU216HW,2013-02-04 10:26:00,
2013-02-04 05:31:00,20.9,14.4,29.38,North,0,0.0,0.0,76,0.00,,,0.00,WUHU216HW,2013-02-04 10:31:00,
2013-02-04 05:36:00,20.9,14.4,29.38,North,0,0.0,0.0,76,0.00,,,0.00,WUHU216HW,2013-02-04 10:36:00,
2013-02-04 05:41:00,20.9,14.4,29.38,North,0,0.0,0.0,76,0.00,,,0.00,WUHU216HW,2013-02-04 10:41:00,
2013-02-04 05:46:00,20.9,14.1,29.38,North,0,0.0,0.0,75,0.00,,,0.00,WUHU216HW,2013-02-04 10:46:00,
2013-02-04 05:51:00,20.9,14.1,29.38,North,0,0.0,0.0,75,0.00,,,0.00,WUHU216HW,2013-02-04 10:51:00,
2013-02-04 05:56:00,20.7,14.0,29.38,North,0,0.0,0.0,75,0.00,,,0.00,WUHU216HW,2013-02-04 10:56:00,
2013-02-04 06:02:00,20.5,13.8,29.38,North,0,0.0,0.0,75,0.00,,,0.00,WUHU216HW,2013-02-04 11:02:00,
2013-02-04 06:07:00,20.5,13.8,29.39,North,0,0.0,0.0,75,0.00,,,0.00,WUHU216HW,2013-02-04 11:07:00,
2013-02-04 06:12:00,20.5,13.8,29.39,North,0,0.0,0.0,75,0.00,,,0.00,WUHU216HW,2013-02-04 11:12:00,
2013-02-04 06:17:00,20.5,13.8,29.39,North,0,0.0,0.0,75,0.00,,,0.00,WUHU216HW,2013-02-04 11:17:00,
2013-02-04 06:22:00,20.5,13.8,29.39,North,0,0.0,0.0,75,0.00,,,0.00,WUHU216HW,2013-02-04 11:22:00,
2013-02-04 06:27:00,20.5,13.8,29.39,North,0,0.0,0.0,75,0.00,,,0.00,WUHU216HW,2013-02-04 11:27:00,
2013-02-04 06:32:00,20.5,13.8,29.39,North,0,0.0,0.0,75,0.00,,,0.00,WUHU216HW,2013-02-04 11:32:00,
2013-02-04 06:37:00,20.5,13.5,29.39,North,0,0.0,0.0,74,0.00,,,0.00,WUHU216HW,2013-02-04 11:37:00,
2013-02-04 06:42:00,20.3,13.3,29.39,North,0,0.0,0.0,74,0.00,,,0.00,WUHU216HW,2013-02-04 11:42:00,
2013-02-04 06:47:00,20.3,13.3,29.39,North,0,0.0,0.0,74,0.00,,,0.00,WUHU216HW,2013-02-04 11:47:00,
2013-02-04 06:52:00,20.3,13.3,29.40,North,0,0.0,0.0,74,0.00,,,0.00,WUHU216HW,2013-02-04 11:52:00,
2013-02-04 06:57:00,20.3,13.3,29.40,North,0,0.0,0.0,74,0.00,,,0.00,WUHU216HW,2013-02-04 11:57:00,
2013-02-04 07:02:00,20.2,13.2,29.40,North,0,0.0,0.0,74,0.00,,,0.00,WUHU216HW,2013-02-04 12:02:00,
2013-02-04 07:07:00,20.2,13.2,29.40,North,0,0.0,0.0,74,0.00,,,0.00,WUHU216HW,2013-02-04 12:07:00,
2013-02-04 07:12:00,20.2,13.4,29.40,North,0,0.0,0.0,75,0.00,,,0.00,WUHU216HW,2013-02-04 12:12:00,
2013-02-04 07:17:00,20.3,13.3,29.40,North,0,0.0,0.0,74,0.00,,,0.00,WUHU216HW,2013-02-04 12:17:00,
2013-02-04 07:22:00,20.3,13.3,29.40,North,0,0.0,0.0,74,0.00,,,0.00,WUHU216HW,2013-02-04 12:22:00,
2013-02-04 07:28:00,20.3,13.3,29.40,North,0,0.0,0.0,74,0.00,,,0.00,WUHU216HW,2013-02-04 12:28:00,
2013-02-04 07:33:00,20.3,13.3,29.41,North,0,0.0,0.0,74,0.00,,,0.00,WUHU216HW,2013-02-04 12:33:00,
2013-02-04 07:38:00,20.5,13.1,29.41,North,0,0.0,0.0,73,0.00,,,0.00,WUHU216HW,2013-02-04 12:38:00,
2013-02-04 07:43:00,20.5,13.1,29.41,North,0,0.0,0.0,73,0.00,,,0.00,WUHU216HW,2013-02-04 12:43:00,
2013-02-04 07:48:00,20.7,13.1,29.41,North,0,0.0,0.0,72,0.00,,,0.00,WUHU216HW,2013-02-04 12:48:00,
2013-02-04 07:53:00,20.7,13.1,29.41,North,0,0.0,0.0,72,0.00,,,0.00,WUHU216HW,2013-02-04 12:53:00,
2013-02-04 07:58:00,20.9,13.2,29.42,North,0,0.0,0.0,72,0.00,,,0.00,WUHU216HW,2013-02-04 12:58:00,
2013-02-04 08:03:00,21.1,13.1,29.41,North,0,0.0,0.0,71,0.00,,,0.00,WUHU216HW,2013-02-04 13:03:00,
2013-02-04 08:08:00,21.1,12.8,29.41,North,0,0.0,0.0,70,0.00,,,0.00,WUHU216HW,2013-02-04 13:08:00,
2013-02-04 08:14:00,21.2,13.0,29.41,North,0,0.0,0.0,70,0.00,,,0.00,WUHU216HW,2013-02-04 13:14:00,
2013-02-04 08:19:00,21.2,12.6,29.41,North,0,0.0,0.0,69,0.00,,,0.00,WUHU216HW,2013-02-04 13:19:00,
2013-02-04 08:24:00,21.4,12.8,29.41,North,0,0.0,0.0,69,0.00,,,0.00,WUHU216HW,2013-02-04 13:24:00,
2013-02-04 08:29:00,21.4,12.8,29.42,North,0,0.0,0.0,69,0.00,,,0.00,WUHU216HW,2013-02-04 13:29:00,
2013-02-04 08:34:00,21.8,12.4,29.41,North,0,0.0,0.0,67,0.00,,,0.00,WUHU216HW,2013-02-04 13:34:00,
2013-02-04 08:39:00,22.1,13.1,29.41,North,0,0.0,0.0,68,0.00,,,0.00,WUHU216HW,2013-02-04 13:39:00,
2013-02-04 08:44:00,22.3,12.6,29.42,North,0,0.0,0.0,66,0.00,,,0.00,WUHU216HW,2013-02-04 13:44:00,
2013-02-04 08:49:00,22.5,12.4,29.42,North,0,0.0,0.0,65,0.00,,,0.00,WUHU216HW,2013-02-04 13:49:00,
2013-02-04 08:54:00,22.9,12.4,29.42,North,0,0.0,0.0,64,0.00,,,0.00,WUHU216HW,2013-02-04 13:54:00,
2013-02-04 08:59:00,23.2,12.8,29.42,North,0,0.0,0.0,64,0.00,,,0.00,WUHU216HW,2013-02-04 13:59:00,
2013-02-04 09:04:00,23.6,12.8,29.42,North,0,0.0,0.0,63,0.00,,,0.00,WUHU216HW,2013-02-04 14:04:00,
2013-02-04 09:09:00,23.9,12.1,29.42,North,0,0.0,0.0,60,0.00,,,0.00,WUHU216HW,2013-02-04 14:09:00,
2013-02-04 09:14:00,24.1,11.8,29.41,North,0,0.0,0.0,59,0.00,,,0.00,WUHU216HW,2013-02-04 14:14:00,
2013-02-04 09:20:00,24.7,12.3,29.41,North,0,0.0,0.0,59,0.00,,,0.00,WUHU216HW,2013-02-04 14:20:00,
2013-02-04 09:25:00,24.8,11.7,29.41,North,0,0.0,0.0,57,0.00,,,0.00,WUHU216HW,2013-02-04 14:25:00,
2013-02-04 09:30:00,25.0,11.9,29.41,North,0,0.0,0.0,57,0.00,,,0.00,WUHU216HW,2013-02-04 14:30:00,
2013-02-04 09:35:00,25.6,12.3,29.41,North,0,0.0,0.0,57,0.00,,,0.00,WUHU216HW,2013-02-04 14:35:00,
2013-02-04 09:40:00,26.3,12.2,29.41,North,0,0.0,0.0,55,0.00,,,0.00,WUHU216HW,2013-02-04 14:40:00,
2013-02-04 09:45:00,26.5,11.5,29.41,North,0,0.0,0.0,53,0.00,,,0.00,WUHU216HW,2013-02-04 14:45:00,
2013-02-04 09:50:00,26.8,11.9,29.41,North,0,0.0,0.0,53,0.00,,,0.00,WUHU216HW,2013-02-04 14:50:00,
2013-02-04 09:56:00,27.5,13.0,29.41,North,0,0.0,0.0,54,0.00,,,0.00,WUHU216HW,2013-02-04 14:56:00,
2013-02-04 10:01:00,28.1,13.2,29.41,North,0,0.0,0.0,53,0.00,,,0.00,WUHU216HW,2013-02-04 15:01:00,
2013-02-04 10:06:00,28.3,12.5,29.41,North,0,0.0,0.0,51,0.00,,,0.00,WUHU216HW,2013-02-04 15:06:00,
2013-02-04 10:11:00,28.4,12.2,29.42,North,0,0.0,0.0,50,0.00,,,0.00,WUHU216HW,2013-02-04 15:11:00,
2013-02-04 10:16:00,28.4,11.7,29.42,North,0,0.0,0.0,49,0.00,,,0.00,WUHU216HW,2013-02-04 15:16:00,
2013-02-04 10:21:00,27.7,10.5,29.42,North,0,0.0,0.0,48,0.00,,,0.00,WUHU216HW,2013-02-04 15:21:00,
2013-02-04 10:26:00,27.4,10.7,29.42,North,0,0.0,0.0,49,0.00,,,0.00,WUHU216HW,2013-02-04 15:26:00,
2013-02-04 10:31:00,27.0,10.8,29.41,North,0,0.0,0.0,50,0.00,,,0.00,WUHU216HW,2013-02-04 15:31:00,
2013-02-04 10:36:00,27.4,10.7,29.41,North,0,0.0,0.0,49,0.00,,,0.00,WUHU216HW,2013-02-04 15:36:00,
2013-02-04 10:42:00,27.7,10.0,29.41,North,0,0.0,0.0,47,0.00,,,0.00,WUHU216HW,2013-02-04 15:42:00,
2013-02-04 10:47:00,28.1,10.9,29.42,North,0,0.0,0.0,48,0.00,,,0.00,WUHU216HW,2013-02-04 15:47:00,
2013-02-04 10:52:00,28.8,11.1,29.41,North,0,0.0,0.0,47,0.00,,,0.00,WUHU216HW,2013-02-04 15:52:00,
2013-02-04 10:57:00,29.2,10.4,29.42,North,0,0.0,0.0,45,0.00,,,0.00,WUHU216HW,2013-02-04 15:57:00,
2013-02-04 11:02:00,29.0,10.7,29.42,North,0,0.0,0.0,46,0.00,,,0.00,WUHU216HW,2013-02-04 16:02:00,
2013-02-04 11:07:00,29.2,10.4,29.42,North,0,0.0,0.0,45,0.00,,,0.00,WUHU216HW,2013-02-04 16:07:00,
2013-02-04 11:12:00,29.5,10.7,29.42,North,0,0.0,0.0,45,0.00,,,0.00,WUHU216HW,2013-02-04 16:12:00,
2013-02-04 11:17:00,29.5,10.2,29.41,North,0,0.0,0.0,44,0.00,,,0.00,WUHU216HW,2013-02-04 16:17:00,
2013-02-04 11:22:00,29.7,11.3,29.41,North,0,0.0,0.0,46,0.00,,,0.00,WUHU216HW,2013-02-04 16:22:00,
2013-02-04 11:28:00,30.2,11.3,29.41,North,0,0.0,0.0,45,0.00,,,0.00,WUHU216HW,2013-02-04 16:28:00,
2013-02-04 11:33:00,30.4,11.0,29.40,North,0,0.0,0.0,44,0.00,,,0.00,WUHU216HW,2013-02-04 16:33:00,
2013-02-04 11:38:00,31.0,10.4,29.40,North,0,0.0,0.0,42,0.00,,,0.00,WUHU216HW,2013-02-04 16:38:00,
2013-02-04 11:43:00,31.3,10.8,29.39,North,0,0.0,0.0,42,0.00,,,0.00,WUHU216HW,2013-02-04 16:43:00,
2013-02-04 11:48:00,31.9,9.0,29.39,North,0,0.0,0.0,38,0.00,,,0.00,WUHU216HW,2013-02-04 16:48:00,
2013-02-04 11:53:00,31.7,8.2,29.39,North,0,0.0,0.0,37,0.00,,,0.00,WUHU216HW,2013-02-04 16:53:00,
2013-02-04 11:58:00,31.0,7.6,29.39,North,0,0.0,0.0,37,0.00,,,0.00,WUHU216HW,2013-02-04 16:58:00,
2013-02-04 12:03:00,30.6,7.3,29.39,North,0,0.0,0.0,37,0.00,,,0.00,WUHU216HW,2013-02-04 17:03:00,
2013-02-04 12:09:00,30.6,7.3,29.40,North,0,0.0,0.0,37,0.00,,,0.00,WUHU216HW,2013-02-04 17:09:00,
2013-02-04 12:14:00,30.6,7.3,29.39,North,0,0.0,0.0,37,0.00,,,0.00,WUHU216HW,2013-02-04 17:14:00,
2013-02-04 12:19:00,30.8,8.0,29.39,North,0,0.0,0.0,38,0.00,,,0.00,WUHU216HW,2013-02-04 17:19:00,
2013-02-04 12:24:00,31.3,7.9,29.39,North,0,0.0,0.0,37,0.00,,,0.00,WUHU216HW,2013-02-04 17:24:00,
2013-02-04 12:29:00,31.9,8.4,29.39,North,0,0.0,0.0,37,0.00,,,0.00,WUHU216HW,2013-02-04 17:29:00,
2013-02-04 12:34:00,32.2,9.4,29.39,North,0,0.0,0.0,38,0.00,,,0.00,WUHU216HW,2013-02-04 17:34:00,
2013-02-04 12:39:00,32.0,7.9,29.39,North,0,0.0,0.0,36,0.00,,,0.00,WUHU216HW,2013-02-04 17:39:00,
2013-02-04 12:44:00,30.6,7.3,29.39,North,0,0.0,0.0,37,0.00,,,0.00,WUHU216HW,2013-02-04 17:44:00,
2013-02-04 12:49:00,29.3,6.1,29.39,North,0,0.0,0.0,37,0.00,,,0.00,WUHU216HW,2013-02-04 17:49:00,
2013-02-04 12:54:00,29.0,6.4,29.39,North,0,0.0,0.0,38,0.00,,,0.00,WUHU216HW,2013-02-04 17:54:00,
2013-02-04 12:59:00,28.3,5.8,29.39,North,0,0.0,0.0,38,0.00,,,0.00,WUHU216HW,2013-02-04 17:59:00,
2013-02-04 13:05:00,28.1,6.8,29.39,North,0,0.0,0.0,40,0.00,,,0.00,WUHU216HW,2013-02-04 18:05:00,
2013-02-04 13:10:00,27.7,6.0,29.39,North,0,0.0,0.0,39,0.00,,,0.00,WUHU216HW,2013-02-04 18:10:00,
2013-02-04 13:15:00,27.4,6.2,29.39,North,0,0.0,0.0,40,0.00,,,0.00,WUHU216HW,2013-02-04 18:15:00,
2013-02-04 13:20:00,27.2,6.0,29.39,North,0,0.0,0.0,40,0.00,,,0.00,WUHU216HW,2013-02-04 18:20:00,
2013-02-04 13:25:00,27.5,6.4,29.39,North,0,0.0,0.0,40,0.00,,,0.00,WUHU216HW,2013-02-04 18:25:00,
2013-02-04 13:30:00,27.4,5.6,29.39,North,0,0.0,0.0,39,0.00,,,0.00,WUHU216HW,2013-02-04 18:30:00,
2013-02-04 13:35:00,27.5,5.8,29.39,North,0,0.0,0.0,39,0.00,,,0.00,WUHU216HW,2013-02-04 18:35:00,
2013-02-04 13:40:00,28.1,6.2,29.40,North,0,0.0,0.0,39,0.00,,,0.00,WUHU216HW,2013-02-04 18:40:00,
2013-02-04 13:46:00,29.2,7.2,29.40,North,0,0.0,0.0,39,0.00,,,0.00,WUHU216HW,2013-02-04 18:46:00,
2013-02-04 13:51:00,29.7,7.1,29.40,North,0,0.0,0.0,38,0.00,,,0.00,WUHU216HW,2013-02-04 18:51:00,
2013-02-04 13:56:00,29.5,7.6,29.40,North,0,0.0,0.0,39,0.00,,,0.00,WUHU216HW,2013-02-04 18:56:00,
2013-02-04 14:01:00,29.5,8.6,29.39,North,0,0.0,0.0,41,0.00,,,0.00,WUHU216HW,2013-02-04 19:01:00,
2013-02-04 14:06:00,29.9,9.6,29.39,North,0,0.0,0.0,42,0.00,,,0.00,WUHU216HW,2013-02-04 19:06:00,
2013-02-04 14:11:00,30.2,9.8,29.39,North,0,0.0,0.0,42,0.00,,,0.00,WUHU216HW,2013-02-04 19:11:00,
2013-02-04 14:16:00,30.2,9.4,29.39,North,0,0.0,0.0,41,0.00,,,0.00,WUHU216HW,2013-02-04 19:16:00,
2013-02-04 14:21:00,30.2,10.4,29.39,North,0,0.0,0.0,43,0.00,,,0.00,WUHU216HW,2013-02-04 19:21:00,
2013-02-04 14:26:00,30.2,9.4,29.40,North,0,0.0,0.0,41,0.00,,,0.00,WUHU216HW,2013-02-04 19:26:00,
2013-02-04 14:31:00,29.5,9.2,29.39,North,0,0.0,0.0,42,0.00,,,0.00,WUHU216HW,2013-02-04 19:31:00,
2013-02-04 14:36:00,29.5,9.7,29.39,North,0,0.0,0.0,43,0.00,,,0.00,WUHU216HW,2013-02-04 19:36:00,
2013-02-04 14:41:00,29.7,10.4,29.39,North,0,0.0,0.0,44,0.00,,,0.00,WUHU216HW,2013-02-04 19:41:00,
2013-02-04 14:46:00,29.7,8.8,29.40,North,0,0.0,0.0,41,0.00,,,0.00,WUHU216HW,2013-02-04 19:46:00,
2013-02-04 14:51:00,29.3,8.6,29.40,North,0,0.0,0.0,41,0.00,,,0.00,WUHU216HW,2013-02-04 19:51:00,
2013-02-04 14:57:00,29.2,7.8,29.39,North,0,0.0,0.0,40,0.00,,,0.00,WUHU216HW,2013-02-04 19:57:00,
2013-02-04 15:02:00,29.2,8.4,29.39,North,0,0.0,0.0,41,0.00,,,0.00,WUHU216HW,2013-02-04 20:02:00,
2013-02-04 15:07:00,29.5,8.2,29.40,North,0,0.0,0.0,40,0.00,,,0.00,WUHU216HW,2013-02-04 20:07:00,
2013-02-04 15:12:00,29.3,6.1,29.40,North,0,0.0,0.0,37,0.00,,,0.00,WUHU216HW,2013-02-04 20:12:00,
2013-02-04 15:17:00,29.0,6.4,29.40,North,0,0.0,0.0,38,0.00,,,0.00,WUHU216HW,2013-02-04 20:17:00,
2013-02-04 15:22:00,29.0,6.4,29.40,North,0,0.0,0.0,38,0.00,,,0.00,WUHU216HW,2013-02-04 20:22:00,
2013-02-04 15:27:00,28.8,5.7,29.40,North,0,0.0,0.0,37,0.00,,,0.00,WUHU216HW,2013-02-04 20:27:00,
2013-02-04 15:32:00,28.6,5.5,29.41,North,0,0.0,0.0,37,0.00,,,0.00,WUHU216HW,2013-02-04 20:32:00,
2013-02-04 15:37:00,28.4,5.3,29.41,North,0,0.0,0.0,37,0.00,,,0.00,WUHU216HW,2013-02-04 20:37:00,
2013-02-04 15:42:00,28.4,5.3,29.41,North,0,0.0,0.0,37,0.00,,,0.00,WUHU216HW,2013-02-04 20:42:00,
2013-02-04 15:47:00,28.4,5.3,29.41,North,0,0.0,0.0,37,0.00,,,0.00,WUHU216HW,2013-02-04 20:47:00,
2013-02-04 15:52:00,28.4,5.3,29.41,North,0,0.0,0.0,37,0.00,,,0.00,WUHU216HW,2013-02-04 20:52:00,
2013-02-04 15:58:00,27.9,4.9,29.42,North,0,0.0,0.0,37,0.00,,,0.00,WUHU216HW,2013-02-04 20:58:00,
2013-02-04 16:03:00,27.5,5.1,29.42,North,0,0.0,0.0,38,0.00,,,0.00,WUHU216HW,2013-02-04 21:03:00,
2013-02-04 16:08:00,27.2,6.0,29.42,North,0,0.0,0.0,40,0.00,,,0.00,WUHU216HW,2013-02-04 21:08:00,
2013-02-04 16:13:00,27.0,6.4,29.42,North,0,0.0,0.0,41,0.00,,,0.00,WUHU216HW,2013-02-04 21:13:00,
2013-02-04 16:18:00,26.8,6.2,29.42,North,0,0.0,0.0,41,0.00,,,0.00,WUHU216HW,2013-02-04 21:18:00,
2013-02-04 16:23:00,26.8,6.2,29.42,North,0,0.0,0.0,41,0.00,,,0.00,WUHU216HW,2013-02-04 21:23:00,
2013-02-04 16:28:00,26.8,6.2,29.42,North,0,0.0,0.0,41,0.00,,,0.00,WUHU216HW,2013-02-04 21:28:00,
2013-02-04 16:33:00,26.6,5.0,29.42,North,0,0.0,0.0,39,0.00,,,0.00,WUHU216HW,2013-02-04 21:33:00,
2013-02-04 16:38:00,26.5,4.8,29.41,North,0,0.0,0.0,39,0.00,,,0.00,WUHU216HW,2013-02-04 21:38:00,
2013-02-04 16:43:00,26.3,4.6,29.41,North,0,0.0,0.0,39,0.00,,,0.00,WUHU216HW,2013-02-04 21:43:00,
2013-02-04 16:49:00,26.3,4.6,29.41,North,0,0.0,0.0,39,0.00,,,0.00,WUHU216HW,2013-02-04 21:49:00,
2013-02-04 16:54:00,26.1,4.5,29.42,North,0,0.0,0.0,39,0.00,,,0.00,WUHU216HW,2013-02-04 21:54:00,
2013-02-04 16:59:00,25.7,4.1,29.42,North,0,0.0,0.0,39,0.00,,,0.00,WUHU216HW,2013-02-04 21:59:00,
2013-02-04 17:04:00,25.6,4.0,29.42,North,0,0.0,0.0,39,0.00,,,0.00,WUHU216HW,2013-02-04 22:04:00,
2013-02-04 17:09:00,25.6,4.6,29.43,North,0,0.0,0.0,40,0.00,,,0.00,WUHU216HW,2013-02-04 22:09:00,
2013-02-04 17:14:00,25.2,3.7,29.43,North,0,0.0,0.0,39,0.00,,,0.00,WUHU216HW,2013-02-04 22:14:00,
2013-02-04 17:19:00,25.0,4.2,29.43,North,0,0.0,0.0,40,0.00,,,0.00,WUHU216HW,2013-02-04 22:19:00,
2013-02-04 17:24:00,24.8,4.0,29.43,North,0,0.0,0.0,40,0.00,,,0.00,WUHU216HW,2013-02-04 22:24:00,
2013-02-04 17:29:00,24.8,3.3,29.44,North,0,0.0,0.0,39,0.00,,,0.00,WUHU216HW,2013-02-04 22:29:00,
2013-02-04 17:34:00,24.7,4.3,29.44,North,0,0.0,0.0,41,0.00,,,0.00,WUHU216HW,2013-02-04 22:34:00,
2013-02-04 17:39:00,24.5,4.2,29.44,North,0,0.0,0.0,41,0.00,,,0.00,WUHU216HW,2013-02-04 22:39:00,
2013-02-04 17:45:00,24.3,4.0,29.44,North,0,0.0,0.0,41,0.00,,,0.00,WUHU216HW,2013-02-04 22:45:00,
2013-02-04 17:50:00,24.1,4.3,29.44,North,0,0.0,0.0,42,0.00,,,0.00,WUHU216HW,2013-02-04 22:50:00,
2013-02-04 17:55:00,23.9,4.2,29.45,North,0,0.0,0.0,42,0.00,,,0.00,WUHU216HW,2013-02-04 22:55:00,
2013-02-04 18:00:00,23.8,4.0,29.45,North,0,0.0,0.0,42,0.00,,,0.00,WUHU216HW,2013-02-04 23:00:00,
2013-02-04 18:05:00,23.8,4.0,29.45,North,0,0.0,0.0,42,0.00,,,0.00,WUHU216HW,2013-02-04 23:05:00,
2013-02-04 18:10:00,23.6,3.8,29.46,North,0,0.0,0.0,42,0.00,,,0.00,WUHU216HW,2013-02-04 23:10:00,
2013-02-04 18:15:00,23.4,3.6,29.46,North,0,0.0,0.0,42,0.00,,,0.00,WUHU216HW,2013-02-04 23:15:00,
2013-02-04 18:20:00,23.4,4.2,29.46,North,0,0.0,0.0,43,0.00,,,0.00,WUHU216HW,2013-02-04 23:20:00,
2013-02-04 18:25:00,23.4,4.2,29.46,North,0,0.0,0.0,43,0.00,,,0.00,WUHU216HW,2013-02-04 23:25:00,
2013-02-04 18:30:00,23.2,4.0,29.46,North,0,0.0,0.0,43,0.00,,,0.00,WUHU216HW,2013-02-04 23:30:00,
2013-02-04 18:35:00,23.0,4.3,29.47,North,0,0.0,0.0,44,0.00,,,0.00,WUHU216HW,2013-02-04 23:35:00,
2013-02-04 18:40:00,22.9,4.2,29.47,North,0,0.0,0.0,44,0.00,,,0.00,WUHU216HW,2013-02-04 23:40:00,
2013-02-04 18:45:00,22.7,4.0,29.47,North,0,0.0,0.0,44,0.00,,,0.00,WUHU216HW,2013-02-04 23:45:00,
2013-02-04 18:50:00,22.7,4.0,29.48,North,0,0.0,0.0,44,0.00,,,0.00,WUHU216HW,2013-02-04 23:50:00,
2013-02-04 18:56:00,22.5,3.8,29.48,North,0,0.0,0.0,44,0.00,,,0.00,WUHU216HW,2013-02-04 23:56:00,
2013-02-04 19:01:00,22.3,3.6,29.48,North,0,0.0,0.0,44,0.00,,,0.00,WUHU216HW,2013-02-05 00:01:00,
2013-02-04 19:06:00,22.1,3.4,29.48,North,0,0.0,0.0,44,0.00,,,0.00,WUHU216HW,2013-02-05 00:06:00,
2013-02-04 19:11:00,22.1,4.0,29.49,North,0,0.0,0.0,45,0.00,,,0.00,WUHU216HW,2013-02-05 00:11:00,
2013-02-04 19:16:00,22.0,3.8,29.49,North,0,0.0,0.0,45,0.00,,,0.00,WUHU216HW,2013-02-05 00:16:00,
2013-02-04 19:21:00,22.0,3.8,29.49,North,0,0.0,0.0,45,0.00,,,0.00,WUHU216HW,2013-02-05 00:21:00,
2013-02-04 19:26:00,21.8,3.6,29.49,North,0,0.0,0.0,45,0.00,,,0.00,WUHU216HW,2013-02-05 00:26:00,
2013-02-04 19:31:00,21.8,3.6,29.49,North,0,0.0,0.0,45,0.00,,,0.00,WUHU216HW,2013-02-05 00:31:00,
2013-02-04 19:36:00,21.6,3.4,29.49,North,0,0.0,0.0,45,0.00,,,0.00,WUHU216HW,2013-02-05 00:36:00,
2013-02-04 19:41:00,21.4,3.7,29.49,North,0,0.0,0.0,46,0.00,,,0.00,WUHU216HW,2013-02-05 00:41:00,
2013-02-04 19:46:00,21.4,3.7,29.50,North,0,0.0,0.0,46,0.00,,,0.00,WUHU216HW,2013-02-05 00:46:00,
2013-02-04 19:52:00,21.2,3.5,29.50,North,0,0.0,0.0,46,0.00,,,0.00,WUHU216HW,2013-02-05 00:52:00,
2013-02-04 19:57:00,21.1,3.3,29.50,North,0,0.0,0.0,46,0.00,,,0.00,WUHU216HW,2013-02-05 00:57:00,
2013-02-04 20:02:00,20.9,3.3,29.50,North,0,0.0,0.0,46,0.00,,,0.00,WUHU216HW,2013-02-05 01:02:00,
2013-02-04 20:07:00,20.7,3.1,29.50,North,0,0.0,0.0,46,0.00,,,0.00,WUHU216HW,2013-02-05 01:07:00,
2013-02-04 20:12:00,20.5,3.3,29.51,North,0,0.0,0.0,47,0.00,,,0.00,WUHU216HW,2013-02-05 01:12:00,
2013-02-04 20:17:00,20.5,3.3,29.51,North,0,0.0,0.0,47,0.00,,,0.00,WUHU216HW,2013-02-05 01:17:00,
2013-02-04 20:22:00,20.5,3.3,29.51,North,0,0.0,0.0,47,0.00,,,0.00,WUHU216HW,2013-02-05 01:22:00,
2013-02-04 20:27:00,20.3,3.2,29.51,North,0,0.0,0.0,47,0.00,,,0.00,WUHU216HW,2013-02-05 01:27:00,
2013-02-04 20:32:00,20.2,3.5,29.52,North,0,0.0,0.0,48,0.00,,,0.00,WUHU216HW,2013-02-05 01:32:00,
2013-02-04 20:37:00,20.0,3.3,29.52,North,0,0.0,0.0,48,0.00,,,0.00,WUHU216HW,2013-02-05 01:37:00,
2013-02-04 20:42:00,20.0,3.3,29.52,North,0,0.0,0.0,48,0.00,,,0.00,WUHU216HW,2013-02-05 01:42:00,
2013-02-04 20:47:00,19.8,3.2,29.52,North,0,0.0,0.0,48,0.00,,,0.00,WUHU216HW,2013-02-05 01:47:00,
2013-02-04 20:52:00,19.8,3.6,29.52,North,0,0.0,0.0,49,0.00,,,0.00,WUHU216HW,2013-02-05 01:52:00,
2013-02-04 20:57:00,19.8,3.6,29.52,North,0,0.0,0.0,49,0.00,,,0.00,WUHU216HW,2013-02-05 01:57:00,
2013-02-04 21:02:00,19.8,3.6,29.52,North,0,0.0,0.0,49,0.00,,,0.00,WUHU216HW,2013-02-05 02:02:00,
2013-02-04 21:07:00,19.6,3.5,29.52,North,0,0.0,0.0,49,0.00,,,0.00,WUHU216HW,2013-02-05 02:07:00,
2013-02-04 21:12:00,19.8,3.6,29.52,North,0,0.0,0.0,49,0.00,,,0.00,WUHU216HW,2013-02-05 02:12:00,
2013-02-04 21:18:00,19.8,3.6,29.53,North,0,0.0,0.0,49,0.00,,,0.00,WUHU216HW,2013-02-05 02:18:00,
2013-02-04 21:23:00,19.8,3.6,29.53,North,0,0.0,0.0,49,0.00,,,0.00,WUHU216HW,2013-02-05 02:23:00,
2013-02-04 21:28:00,19.6,3.5,29.53,North,0,0.0,0.0,49,0.00,,,0.00,WUHU216HW,2013-02-05 02:28:00,
2013-02-04 21:33:00,19.4,3.3,29.53,North,0,0.0,0.0,49,0.00,,,0.00,WUHU216HW,2013-02-05 02:33:00,
2013-02-04 21:38:00,19.6,3.5,29.53,North,0,0.0,0.0,49,0.00,,,0.00,WUHU216HW,2013-02-05 02:38:00,
2013-02-04 21:43:00,19.6,3.0,29.54,North,0,0.0,0.0,48,0.00,,,0.00,WUHU216HW,2013-02-05 02:43:00,
2013-02-04 21:48:00,19.6,3.0,29.54,North,0,0.0,0.0,48,0.00,,,0.00,WUHU216HW,2013-02-05 02:48:00,
2013-02-04 21:53:00,19.6,3.0,29.54,North,0,0.0,0.0,48,0.00,,,0.00,WUHU216HW,2013-02-05 02:53:00,
2013-02-04 21:58:00,19.6,3.0,29.54,North,0,0.0,0.0,48,0.00,,,0.00,WUHU216HW,2013-02-05 02:58:00,
2013-02-04 22:03:00,19.4,2.9,29.54,North,0,0.0,0.0,48,0.00,,,0.00,WUHU216HW,2013-02-05 03:03:00,
2013-02-04 22:08:00,19.4,2.9,29.54,North,0,0.0,0.0,48,0.00,,,0.00,WUHU216HW,2013-02-05 03:08:00,
2013-02-04 22:13:00,19.4,2.9,29.54,North,0,0.0,0.0,48,0.00,,,0.00,WUHU216HW,2013-02-05 03:13:00,
2013-02-04 22:18:00,19.3,2.7,29.54,North,0,0.0,0.0,48,0.00,,,0.00,WUHU216HW,2013-02-05 03:18:00,
2013-02-04 22:23:00,19.3,2.7,29.54,North,0,0.0,0.0,48,0.00,,,0.00,WUHU216HW,2013-02-05 03:23:00,
2013-02-04 22:29:00,19.3,2.7,29.54,North,0,0.0,0.0,48,0.00,,,0.00,WUHU216HW,2013-02-05 03:29:00,
2013-02-04 22:34:00,19.3,2.7,29.54,North,0,0.0,0.0,48,0.00,,,0.00,WUHU216HW,2013-02-05 03:34:00,
2013-02-04 22:39:00,19.3,2.7,29.54,North,0,0.0,0.0,48,0.00,,,0.00,WUHU216HW,2013-02-05 03:39:00,
2013-02-04 22:44:00,19.1,2.5,29.54,North,0,0.0,0.0,48,0.00,,,0.00,WUHU216HW,2013-02-05 03:44:00,
2013-02-04 22:49:00,19.1,2.5,29.54,North,0,0.0,0.0,48,0.00,,,0.00,WUHU216HW,2013-02-05 03:49:00,
2013-02-04 22:54:00,19.1,2.5,29.54,North,0,0.0,0.0,48,0.00,,,0.00,WUHU216HW,2013-02-05 03:54:00,
2013-02-04 22:59:00,18.9,2.8,29.55,North,0,0.0,0.0,49,0.00,,,0.00,WUHU216HW,2013-02-05 03:59:00,
2013-02-04 23:04:00,18.7,2.7,29.55,North,0,0.0,0.0,49,0.00,,,0.00,WUHU216HW,2013-02-05 04:04:00,
2013-02-04 23:09:00,18.5,2.5,29.55,North,0,0.0,0.0,49,0.00,,,0.00,WUHU216HW,2013-02-05 04:09:00,
2013-02-04 23:14:00,18.4,2.3,29.55,North,0,0.0,0.0,49,0.00,,,0.00,WUHU216HW,2013-02-05 04:14:00,
2013-02-04 23:19:00,18.4,2.8,29.55,North,0,0.0,0.0,50,0.00,,,0.00,WUHU216HW,2013-02-05 04:19:00,
2013-02-04 23:24:00,18.0,2.5,29.55,North,0,0.0,0.0,50,0.00,,,0.00,WUHU216HW,2013-02-05 04:24:00,
2013-02-04 23:30:00,17.6,2.5,29.55,North,0,0.0,0.0,51,0.00,,,0.00,WUHU216HW,2013-02-05 04:30:00,
2013-02-04 23:35:00,17.6,2.5,29.55,North,0,0.0,0.0,51,0.00,,,0.00,WUHU216HW,2013-02-05 04:35:00,
2013-02-04 23:40:00,17.5,2.4,29.55,North,0,0.0,0.0,51,0.00,,,0.00,WUHU216HW,2013-02-05 04:40:00,
2013-02-04 23:45:00,17.5,2.4,29.55,North,0,0.0,0.0,51,0.00,,,0.00,WUHU216HW,2013-02-05 04:45:00,
2013-02-04 23:50:00,17.3,2.6,29.55,North,0,0.0,0.0,52,0.00,,,0.00,WUHU216HW,2013-02-05 04:50:00,
2013-02-04 23:55:00,17.3,2.6,29.55,North,0,0.0,0.0,52,0.00,,,0.00,WUHU216HW,2013-02-05 04:55:00,